Time;durP1;ratioP1;P1;durP2;ratioP2;P2;SDS_P1;SDS_P2;PMS_P1;PMS_P2;Temp;Humidity;BMP_temperature;BMP_pressure;BME280_temperature;BME280_humidity;BME280_pressure;Samples;Min_cycle;Max_cycle;Signal;HPM_P1;HPM_P2
2023/07/12 00:01:16;;;;;;;1.50;0.60;;;23.70;99.90;;;23.86;56.17;100467.91;4872485;28;98704;-46
2023/07/12 00:03:42;;;;;;;1.17;0.30;;;23.70;99.90;;;23.84;56.18;100469.88;4872846;28;97650;-48
2023/07/12 00:06:17;;;;;;;1.60;0.57;;;23.70;99.90;;;23.84;56.23;100477.13;4872818;28;101569;-44
2023/07/12 00:08:44;;;;;;;0.83;0.60;;;23.70;99.90;;;23.83;56.16;100475.44;4876209;28;97660;-45
2023/07/12 00:11:20;;;;;;;4.23;0.80;;;23.70;99.90;;;23.84;56.05;100475.28;4874740;28;99035;-42
2023/07/12 00:13:46;;;;;;;0.57;0.57;;;23.70;99.90;;;23.83;55.89;100478.97;4875289;28;97273;-44
2023/07/12 00:16:25;;;;;;;1.52;0.52;;;23.70;99.90;;;23.83;56.14;100473.56;4873563;28;97183;-43
2023/07/12 00:18:52;;;;;;;0.50;0.40;;;23.70;99.90;;;23.81;55.51;100463.94;4859862;28;97540;-43
2023/07/12 00:21:22;;;;;;;1.90;0.70;;;23.60;99.90;;;23.84;56.57;100453.72;4871215;28;97917;-42
2023/07/12 00:23:53;;;;;;;3.05;0.80;;;23.70;99.90;;;23.79;55.56;100434.47;4871616;28;99195;-45
2023/07/12 00:26:30;;;;;;;1.20;0.52;;;23.70;99.90;;;23.84;57.06;100447.50;4859253;28;97301;-42
2023/07/12 00:28:58;;;;;;;0.70;0.60;;;23.70;99.90;;;23.83;55.69;100464.66;4862803;28;97868;-43
2023/07/12 00:31:24;;;;;;;0.70;0.50;;;23.70;99.90;;;23.82;55.57;100477.28;4864509;28;99190;-45
2023/07/12 00:33:51;;;;;;;0.47;0.40;;;23.70;99.90;;;23.85;56.60;100485.06;4857629;28;98504;-44
2023/07/12 00:36:31;;;;;;;1.02;0.70;;;23.70;99.90;;;23.85;55.84;100497.66;4874032;28;97594;-43
2023/07/12 00:38:59;;;;;;;0.38;0.38;;;23.70;99.90;;;23.85;56.58;100485.06;4857843;28;97431;-44
2023/07/12 00:42:02;;;;;;;0.20;0.20;;;23.70;99.90;;;23.83;55.03;100478.97;4881950;28;97257;-44
2023/07/12 00:44:51;;;;;;;1.27;0.50;;;23.70;99.90;;;23.83;55.92;100489.75;4884111;28;99858;-42
2023/07/12 00:47:19;;;;;;;1.40;0.60;;;23.70;99.90;;;23.80;55.92;100487.34;4855860;28;98445;-45
2023/07/12 00:49:46;;;;;;;0.52;0.50;;;23.70;99.90;;;23.80;55.49;100490.03;4895874;28;98852;-45
2023/07/12 00:52:15;;;;;;;3.27;0.70;;;23.70;99.90;;;23.81;55.83;100480.09;4902347;28;97734;-45
2023/07/12 00:55:01;;;;;;;1.50;1.17;;;23.70;99.90;;;23.82;55.97;100479.97;4909892;28;97545;-44
2023/07/12 00:57:29;;;;;;;0.70;0.50;;;23.70;99.90;;;23.78;55.07;100492.03;4910026;28;97542;-44
2023/07/12 01:00:10;;;;;;;1.30;0.85;;;23.70;99.90;;;23.80;54.58;100483.81;4915670;28;97527;-43
2023/07/12 01:02:40;;;;;;;1.03;0.57;;;23.70;99.90;;;23.79;55.93;100499.09;4897542;28;103201;-50
2023/07/12 01:05:06;;;;;;;0.90;0.50;;;23.70;99.90;;;23.77;56.48;100503.78;4919686;28;102848;-46
2023/07/12 01:07:34;;;;;;;2.13;0.68;;;23.60;99.90;;;23.78;55.60;100497.41;4896610;28;97501;-44
2023/07/12 01:09:59;;;;;;;2.70;0.73;;;23.70;99.90;;;23.77;55.21;100503.78;4902460;28;97528;-46
2023/07/12 01:12:25;;;;;;;2.72;0.98;;;23.70;99.90;;;23.77;54.97;100495.72;4905425;28;97965;-43
2023/07/12 01:14:51;;;;;;;0.57;0.57;;;23.60;99.90;;;23.77;55.43;100509.19;4907041;28;97454;-44
2023/07/12 01:17:18;;;;;;;0.65;0.50;;;23.70;99.90;;;23.77;55.02;100506.47;4917205;28;97653;-43
2023/07/12 01:19:44;;;;;;;0.80;0.60;;;23.70;99.90;;;23.78;57.09;100497.41;4915276;28;110497;-43
2023/07/12 01:22:10;;;;;;;1.53;0.70;;;23.70;99.90;;;23.79;55.25;100495.56;4922954;28;97568;-45
2023/07/12 01:24:36;;;;;;;1.90;0.60;;;23.70;99.90;;;23.80;57.05;100495.41;4918099;28;112435;-43
2023/07/12 01:27:14;;;;;;;0.40;0.40;;;23.60;99.90;;;23.80;55.57;100489.19;4900202;28;97128;-43
2023/07/12 01:29:40;;;;;;;2.05;0.70;;;23.60;99.90;;;23.80;58.07;100499.97;4901567;28;97819;-43
2023/07/12 01:32:07;;;;;;;2.28;0.50;;;23.70;99.90;;;23.79;57.25;100504.50;4911697;28;98320;-43
2023/07/12 01:34:32;;;;;;;2.15;0.70;;;23.70;99.90;;;23.76;56.53;100515.56;4911063;28;103044;-43
2023/07/12 01:36:58;;;;;;;2.47;0.73;;;23.70;99.90;;;23.71;55.25;100493.56;4898970;28;97240;-44
2023/07/12 01:39:24;;;;;;;3.20;0.80;;;23.60;99.90;;;23.72;59.49;100476.41;4915334;28;97310;-43
2023/07/12 01:41:50;;;;;;;2.70;0.65;;;23.60;99.90;;;23.67;56.42;100484.09;4912316;28;97256;-46
2023/07/12 01:44:16;;;;;;;4.72;0.80;;;23.60;99.90;;;23.71;66.03;100490.88;4894639;28;97878;-42
2023/07/12 01:46:41;;;;;;;2.07;0.60;;;23.60;99.90;;;23.65;66.88;100476.16;4906364;28;102440;-44
2023/07/12 01:49:07;;;;;;;1.23;0.70;;;23.50;99.90;;;23.58;59.34;100482.25;4908687;28;97586;-44
2023/07/12 01:51:33;;;;;;;3.30;0.60;;;23.40;99.90;;;23.55;57.16;100501.34;4909216;28;97491;-43
2023/07/12 01:53:59;;;;;;;0.88;0.52;;;23.40;99.90;;;23.53;60.04;100500.63;4910785;28;121666;-43
2023/07/12 01:56:25;;;;;;;0.97;0.70;;;23.40;99.90;;;23.56;64.46;100511.13;4916681;28;97660;-42
2023/07/12 01:58:50;;;;;;;0.47;0.47;;;23.40;99.90;;;23.52;66.15;100517.78;4893085;28;97816;-43
2023/07/12 02:01:16;;;;;;;3.97;0.87;;;23.40;99.90;;;23.47;58.94;100520.06;4910313;28;101054;-43
2023/07/12 02:03:42;;;;;;;1.57;0.73;;;23.30;99.90;;;23.45;62.30;100518.38;4916474;28;122017;-43
2023/07/12 02:06:08;;;;;;;0.30;0.30;;;23.30;99.90;;;23.43;62.04;100509.59;4917078;28;110870;-42
2023/07/12 02:08:33;;;;;;;0.93;0.40;;;23.20;99.90;;;23.41;60.66;100506.16;4916174;28;97035;-43
2023/07/12 02:10:59;;;;;;;1.03;0.50;;;23.20;99.90;;;23.40;59.48;100503.59;4917224;28;98682;-45
2023/07/12 02:13:25;;;;;;;1.07;0.50;;;23.20;99.90;;;23.38;61.38;100511.81;4915107;28;121596;-46
2023/07/12 02:15:51;;;;;;;1.33;0.70;;;23.20;99.90;;;23.35;61.02;100508.56;4919309;28;101530;-43
2023/07/12 02:18:17;;;;;;;2.37;0.83;;;23.20;99.90;;;23.32;61.24;100528.53;4918872;28;97651;-42
2023/07/12 02:20:44;;;;;;;1.33;0.60;;;23.10;99.90;;;23.29;59.58;100544.97;4893603;28;97529;-48
2023/07/12 02:23:10;;;;;;;3.33;0.90;;;23.10;99.90;;;23.27;58.33;100565.75;4917742;28;97939;-44
2023/07/12 02:25:35;;;;;;;1.90;0.80;;;23.10;99.90;;;23.28;60.92;100582.75;4913131;28;98526;-42
2023/07/12 02:28:01;;;;;;;1.30;0.77;;;23.10;99.90;;;23.27;59.30;100576.53;4914644;28;110564;-43
2023/07/12 02:30:29;;;;;;;1.00;0.60;;;23.10;99.90;;;23.28;58.37;100564.78;4908015;28;116512;-43
2023/07/12 02:32:55;;;;;;;0.53;0.40;;;23.10;99.90;;;23.30;58.12;100564.66;4909086;28;97918;-46
2023/07/12 02:35:27;;;;;;;0.53;0.40;;;23.10;99.90;;;23.31;58.05;100564.53;4911587;28;100014;-44
2023/07/12 02:37:54;;;;;;;1.23;0.53;;;23.10;99.90;;;23.30;60.51;100567.34;4898644;28;97396;-45
2023/07/12 02:40:23;;;;;;;1.80;0.77;;;23.10;99.90;;;23.29;59.98;100566.50;4898764;28;98596;-44
2023/07/12 02:42:48;;;;;;;1.03;0.60;;;23.10;99.90;;;23.28;59.74;100562.09;4898666;28;97247;-43
2023/07/12 02:45:14;;;;;;;2.83;0.60;;;23.10;99.90;;;23.27;58.54;100552.31;4914221;28;97660;-43
2023/07/12 02:47:40;;;;;;;1.10;0.67;;;23.10;99.90;;;23.26;57.79;100545.22;4921071;28;98009;-44
2023/07/12 02:50:06;;;;;;;3.10;0.50;;;23.10;99.90;;;23.27;58.36;100554.16;4918874;28;97128;-42
2023/07/12 02:52:34;;;;;;;1.00;0.50;;;23.10;99.90;;;23.27;59.50;100563.06;4917373;28;97709;-43
2023/07/12 02:55:00;;;;;;;1.20;0.60;;;23.10;99.90;;;23.26;59.68;100566.75;4911707;28;97718;-47
2023/07/12 02:57:27;;;;;;;2.10;0.83;;;23.10;99.90;;;23.25;59.80;100574.97;4911781;28;106001;-44
2023/07/12 02:59:52;;;;;;;1.40;0.50;;;23.10;99.90;;;23.22;60.10;100594.94;4910481;28;98587;-44
2023/07/12 03:02:18;;;;;;;3.50;0.80;;;23.00;99.90;;;23.21;60.06;100600.47;4917026;28;98373;-44
2023/07/12 03:04:44;;;;;;;2.07;0.83;;;23.00;99.90;;;23.17;59.93;100616.03;4914065;28;97471;-43
2023/07/12 03:07:10;;;;;;;1.80;0.97;;;23.00;99.90;;;23.14;59.77;100622.50;4921054;28;97987;-43
2023/07/12 03:09:36;;;;;;;1.43;0.53;;;23.00;99.90;;;23.13;59.16;100623.50;4913756;28;115091;-46
2023/07/12 03:12:03;;;;;;;3.53;1.00;;;23.00;99.90;;;23.05;60.52;100623.34;4894241;28;115257;-43
2023/07/12 03:14:28;;;;;;;1.90;0.80;;;22.90;99.90;;;22.98;60.58;100610.56;4887908;28;97389;-46
2023/07/12 03:16:54;;;;;;;0.80;0.67;;;22.80;99.90;;;22.90;59.59;100623.84;4895765;28;97779;-45
2023/07/12 03:19:21;;;;;;;1.23;0.70;;;22.70;99.90;;;22.88;60.52;100628.50;4899773;28;101576;-44
2023/07/12 03:21:47;;;;;;;0.90;0.73;;;22.60;99.90;;;22.91;60.49;100637.16;4911227;28;98839;-43
2023/07/12 03:24:13;;;;;;;0.67;0.40;;;22.70;99.90;;;22.84;60.21;100647.56;4916849;28;98778;-43
2023/07/12 03:26:38;;;;;;;1.60;0.90;;;22.60;99.90;;;22.83;59.49;100651.25;4899467;28;97196;-46
2023/07/12 03:29:04;;;;;;;1.07;0.50;;;22.60;99.90;;;22.79;59.00;100659.69;4901017;28;114151;-45
2023/07/12 03:31:31;;;;;;;0.93;0.63;;;22.50;99.90;;;22.80;58.38;100662.25;4902096;28;98039;-48
2023/07/12 03:33:58;;;;;;;3.03;0.60;;;22.50;99.90;;;22.73;58.09;100655.72;4908989;28;111950;-43
2023/07/12 03:36:29;;;;;;;0.77;0.60;;;22.50;99.90;;;22.73;57.12;100649.50;4917651;28;97349;-44
2023/07/12 03:38:56;;;;;;;1.77;0.73;;;22.40;99.90;;;22.65;55.94;100650.13;4914589;28;98948;-46
2023/07/12 03:41:22;;;;;;;1.03;0.60;;;22.40;99.90;;;22.67;56.13;100650.00;4914732;28;97389;-43
2023/07/12 03:43:49;;;;;;;1.77;0.60;;;22.40;99.90;;;22.69;56.38;100638.13;4914786;28;97319;-48
2023/07/12 03:46:16;;;;;;;0.47;0.40;;;22.40;99.90;;;22.70;55.63;100645.22;4921252;28;97274;-42
2023/07/12 03:48:42;;;;;;;1.90;0.57;;;22.40;99.90;;;22.72;55.76;100643.25;4920280;28;101607;-42
2023/07/12 03:51:10;;;;;;;0.97;0.50;;;22.50;99.90;;;22.76;56.44;100639.31;4917525;28;101762;-43
2023/07/12 03:53:36;;;;;;;0.90;0.53;;;22.50;99.90;;;22.77;57.04;100635.63;4916367;28;97634;-43
2023/07/12 03:56:03;;;;;;;0.60;0.40;;;22.50;99.90;;;22.78;56.96;100642.72;4911021;28;110609;-42
2023/07/12 03:58:35;;;;;;;1.17;0.40;;;22.50;99.90;;;22.80;56.73;100645.28;4910834;28;97328;-44
2023/07/12 04:01:05;;;;;;;1.83;0.50;;;22.50;99.90;;;22.82;55.84;100628.03;4895525;28;97757;-43
2023/07/12 04:03:31;;;;;;;1.30;0.40;;;22.60;99.90;;;22.83;56.19;100629.75;4904017;28;99056;-43
2023/07/12 04:05:57;;;;;;;1.30;0.60;;;22.60;99.90;;;22.82;56.50;100646.88;4897520;28;97717;-43
2023/07/12 04:08:22;;;;;;;1.40;0.50;;;22.60;99.90;;;22.88;55.10;100652.72;4909632;28;118128;-43
2023/07/12 04:10:53;;;;;;;0.93;0.40;;;22.60;99.90;;;22.85;54.48;100638.53;4915181;28;97306;-44
2023/07/12 04:13:20;;;;;;;1.80;0.30;;;22.60;99.90;;;22.91;54.97;100637.16;4914964;28;97403;-43
2023/07/12 04:15:46;;;;;;;1.23;0.40;;;22.70;99.90;;;22.94;55.28;100636.03;4917644;28;97905;-46
2023/07/12 04:18:12;;;;;;;0.33;0.30;;;22.70;99.90;;;22.94;55.89;100644.09;4914361;28;98121;-44
2023/07/12 04:20:38;;;;;;;1.67;0.47;;;22.70;99.90;;;22.97;55.83;100630.38;4913130;28;98891;-43
2023/07/12 04:23:05;;;;;;;0.77;0.50;;;22.70;99.90;;;23.00;56.91;100627.41;4913217;28;97009;-46
2023/07/12 04:25:32;;;;;;;1.33;0.50;;;22.80;99.90;;;22.99;58.29;100628.41;4891283;28;97882;-44
2023/07/12 04:27:58;;;;;;;0.60;0.37;;;22.70;99.90;;;22.93;56.65;100623.56;4903861;28;98748;-43
2023/07/12 04:30:24;;;;;;;1.50;0.33;;;22.60;99.90;;;22.95;58.25;100616.22;4917576;28;97927;-44
2023/07/12 04:32:52;;;;;;;1.43;0.43;;;22.70;99.90;;;22.91;58.79;100620.16;4909458;28;106419;-44
2023/07/12 04:35:19;;;;;;;2.47;0.50;;;22.60;99.90;;;22.88;57.68;100637.44;4917965;28;97218;-43
2023/07/12 04:37:49;;;;;;;0.60;0.30;;;22.50;99.90;;;22.87;57.57;100656.41;4915609;28;100388;-44
2023/07/12 04:40:17;;;;;;;1.70;0.40;;;22.50;99.90;;;22.83;57.59;100639.66;4887009;28;101926;-42
2023/07/12 04:42:43;;;;;;;1.40;0.50;;;22.50;99.90;;;22.82;57.78;100652.25;4908025;28;97837;-43
2023/07/12 04:45:10;;;;;;;1.10;0.40;;;22.50;99.90;;;22.80;57.05;100659.56;4897186;28;98085;-43
2023/07/12 04:47:37;;;;;;;0.97;0.63;;;22.50;99.90;;;22.80;57.38;100667.63;4913159;28;97909;-42
2023/07/12 04:50:05;;;;;;;1.97;0.37;;;22.50;99.90;;;22.81;56.93;100669.34;4909428;28;97822;-45
2023/07/12 04:52:30;;;;;;;0.30;0.30;;;22.50;99.90;;;22.81;56.74;100673.84;4901890;28;97905;-43
2023/07/12 04:54:58;;;;;;;0.30;0.30;;;22.50;99.90;;;22.79;56.93;100670.44;4892422;28;104918;-43
2023/07/12 04:57:24;;;;;;;0.97;0.30;;;22.50;99.90;;;22.77;57.05;100673.28;4894848;28;98250;-42
2023/07/12 04:59:50;;;;;;;0.77;0.50;;;22.50;99.90;;;22.75;58.17;100664.50;4907448;28;97225;-44
2023/07/12 05:02:16;;;;;;;0.50;0.30;;;22.40;99.90;;;22.76;57.53;100659.97;4917956;28;97438;-46
2023/07/12 05:04:43;;;;;;;0.53;0.40;;;22.40;99.90;;;22.71;56.87;100679.19;4912596;28;97589;-43
2023/07/12 05:07:10;;;;;;;0.60;0.33;;;22.40;99.90;;;22.76;56.64;100671.56;4912339;28;97640;-43
2023/07/12 05:09:37;;;;;;;0.50;0.20;;;22.40;99.90;;;22.77;56.69;100684.03;4914188;28;98461;-44
2023/07/12 05:12:03;;;;;;;1.03;0.60;;;22.50;99.90;;;22.81;56.15;100676.56;4903749;28;97454;-45
2023/07/12 05:14:29;;;;;;;0.20;0.20;;;22.50;99.90;;;22.83;57.26;100680.84;4887761;28;97558;-43
2023/07/12 05:16:55;;;;;;;1.57;0.57;;;22.60;99.90;;;22.82;57.25;100681.81;4899657;28;102346;-42
2023/07/12 05:19:20;;;;;;;0.40;0.40;;;22.50;99.90;;;22.84;56.88;100679.84;4912266;28;97527;-47
2023/07/12 05:21:46;;;;;;;0.60;0.37;;;22.60;99.90;;;22.84;56.71;100695.13;4905886;28;112228;-43
2023/07/12 05:24:12;;;;;;;0.43;0.20;;;22.60;99.90;;;22.83;56.53;100688.91;4901402;28;97765;-42
2023/07/12 05:26:38;;;;;;;0.63;0.37;;;22.60;99.90;;;22.83;56.91;100696.97;4914282;28;98191;-44
2023/07/12 05:29:04;;;;;;;1.70;0.30;;;22.60;99.90;;;22.83;56.56;100710.41;4906874;28;118802;-42
2023/07/12 05:31:29;;;;;;;0.80;0.57;;;22.50;99.90;;;22.85;56.86;100713.81;4913891;28;97646;-42
2023/07/12 05:33:55;;;;;;;0.57;0.30;;;22.60;99.90;;;22.80;56.69;100713.34;4913871;28;103481;-42
2023/07/12 05:36:21;;;;;;;0.93;0.30;;;22.50;99.90;;;22.78;56.28;100711.78;4912140;28;97371;-45
2023/07/12 05:38:47;;;;;;;0.43;0.30;;;22.50;99.90;;;22.77;56.33;100721.69;4918158;28;125141;-42
2023/07/12 05:41:12;;;;;;;0.90;0.60;;;22.50;99.90;;;22.78;55.59;100718.00;4915310;28;97437;-42
2023/07/12 05:43:40;;;;;;;3.80;0.87;;;22.50;99.90;;;22.75;55.88;100729.03;4915287;28;97262;-43
2023/07/12 05:46:06;;;;;;;0.43;0.30;;;22.50;99.90;;;22.73;55.84;100736.38;4909590;28;98533;-42
2023/07/12 05:48:32;;;;;;;0.73;0.23;;;22.50;99.90;;;22.70;55.47;100725.84;4915285;28;115922;-43
2023/07/12 05:51:00;;;;;;;0.63;0.50;;;22.50;99.90;;;22.63;55.85;100735.44;4916942;28;97750;-47
2023/07/12 05:53:26;;;;;;;0.57;0.30;;;22.40;99.90;;;22.66;56.03;100740.56;4901097;28;97728;-42
2023/07/12 05:55:56;;;;;;;1.70;0.50;;;22.40;99.90;;;22.64;55.85;100752.44;4895079;28;124746;-44
2023/07/12 05:58:23;;;;;;;0.27;0.27;;;22.40;99.90;;;22.60;55.96;100757.22;4903957;28;98266;-44
2023/07/12 06:01:03;;;;;;;0.43;0.30;;;22.40;99.90;;;22.40;56.14;100766.09;4899010;28;98271;-43
2023/07/12 06:03:32;;;;;;;0.97;0.30;;;22.30;99.90;;;22.34;56.90;100771.97;4911460;28;97217;-42
2023/07/12 06:05:59;;;;;;;0.63;0.40;;;22.20;99.90;;;22.21;56.41;100770.31;5000710;22;101126;-44
2023/07/12 06:08:26;;;;;;;1.73;0.30;;;22.10;99.90;;;22.12;56.59;100771.06;4892914;28;96986;-42
2023/07/12 06:10:52;;;;;;;0.80;0.60;;;22.00;99.90;;;22.19;57.46;100769.59;4876544;28;97499;-44
2023/07/12 06:13:18;;;;;;;1.37;0.40;;;22.00;99.90;;;22.19;56.80;100769.59;4924388;23;97967;-43
2023/07/12 06:15:44;;;;;;;0.53;0.40;;;22.00;99.90;;;22.26;57.36;100765.38;4911600;28;97898;-43
2023/07/12 06:18:10;;;;;;;0.80;0.30;;;22.00;99.90;;;22.33;57.34;100764.91;4903185;28;99161;-44
2023/07/12 06:20:36;;;;;;;0.83;0.60;;;22.10;99.90;;;22.41;57.09;100773.16;4916162;28;97428;-44
2023/07/12 06:23:02;;;;;;;0.47;0.37;;;22.20;99.90;;;22.35;56.75;100768.31;4902867;28;97470;-45
2023/07/12 06:25:28;;;;;;;1.93;0.60;;;22.10;99.90;;;22.41;56.97;100767.78;4900245;28;97908;-43
2023/07/12 06:27:54;;;;;;;0.90;0.40;;;22.20;99.90;;;22.39;56.81;100769.75;4896503;28;97420;-43
2023/07/12 06:30:20;;;;;;;0.93;0.30;;;22.20;99.90;;;22.38;57.26;100774.28;4900569;28;97360;-44
2023/07/12 06:32:46;;;;;;;1.40;0.30;;;22.20;99.90;;;22.39;57.22;100777.81;4905303;28;98363;-44
2023/07/12 06:35:12;;;;;;;1.80;0.40;;;22.10;99.90;;;22.40;56.83;100771.47;4898122;28;115345;-45
2023/07/12 06:37:38;;;;;;;0.73;0.40;;;22.20;99.90;;;22.33;57.09;100759.53;4897973;28;107002;-46
2023/07/12 06:40:05;;;;;;;1.97;0.43;;;22.10;99.90;;;22.26;57.56;100773.44;4894164;28;97448;-43
2023/07/12 06:42:32;;;;;;;0.83;0.47;;;22.00;99.90;;;22.24;57.57;100770.03;4899419;28;97593;-43
2023/07/12 06:44:58;;;;;;;0.60;0.40;;;22.00;99.90;;;22.18;57.99;100775.09;4896068;28;98100;-43
2023/07/12 06:47:24;;;;;;;0.90;0.53;;;21.90;99.90;;;22.23;57.96;100760.28;4902415;28;97534;-43
2023/07/12 06:49:50;;;;;;;0.73;0.50;;;22.00;99.90;;;22.25;58.03;100763.69;4896350;28;113731;-45
2023/07/12 06:52:16;;;;;;;1.47;0.30;;;22.00;99.90;;;22.30;57.65;100759.78;4892293;28;103367;-44
2023/07/12 06:54:42;;;;;;;0.87;0.40;;;22.10;99.90;;;22.36;57.83;100765.50;4886146;28;98499;-46
2023/07/12 06:57:08;;;;;;;1.40;0.40;;;22.10;99.90;;;22.32;57.46;100757.81;4882964;28;97378;-44
2023/07/12 06:59:33;;;;;;;0.83;0.40;;;22.10;99.90;;;22.25;57.75;100763.69;4909006;28;96994;-42
2023/07/12 07:01:59;;;;;;;1.53;0.57;;;22.10;99.90;;;22.22;57.31;100771.16;4904768;28;97817;-46
2023/07/12 07:04:25;;;;;;;0.90;0.50;;;22.10;99.90;;;22.27;57.67;100760.88;4902172;28;117873;-52
2023/07/12 07:06:51;;;;;;;1.20;0.50;;;22.10;99.90;;;22.33;57.61;100770.28;4899980;28;98367;-44
2023/07/12 07:09:17;;;;;;;1.13;0.50;;;22.10;99.90;;;22.27;56.88;100766.25;4898930;28;97436;-44
2023/07/12 07:11:43;;;;;;;0.90;0.50;;;22.10;99.90;;;22.22;55.99;100765.78;4896337;28;106672;-43
2023/07/12 07:14:08;;;;;;;0.50;0.30;;;22.10;99.90;;;22.22;56.71;100769.31;4894630;28;97453;-45
2023/07/12 07:16:34;;;;;;;0.70;0.30;;;22.10;99.90;;;22.27;56.90;100767.09;4900369;28;119553;-42
2023/07/12 07:19:00;;;;;;;0.90;0.50;;;22.10;99.90;;;22.36;56.86;100773.56;4895888;28;97720;-43
2023/07/12 07:21:26;;;;;;;1.13;0.50;;;22.20;99.90;;;22.43;56.95;100781.97;4895172;28;97628;-50
2023/07/12 07:23:52;;;;;;;2.43;0.47;;;22.30;99.90;;;22.41;56.47;100775.84;4910378;28;104030;-45
2023/07/12 07:26:18;;;;;;;1.33;0.77;;;22.20;99.90;;;22.43;56.59;100776.59;4899065;28;125090;-44
2023/07/12 07:28:44;;;;;;;2.80;0.50;;;22.30;99.90;;;22.39;56.04;100792.09;4898844;28;97731;-43
2023/07/12 07:31:10;;;;;;;0.53;0.40;;;22.30;99.90;;;22.39;55.63;100791.25;4895128;28;105148;-42
2023/07/12 07:33:39;;;;;;;0.70;0.23;;;22.20;99.90;;;22.34;54.88;100801.53;4895726;28;98130;-44
2023/07/12 07:36:08;;;;;;;0.50;0.37;;;22.20;99.90;;;22.33;54.70;100797.16;4896232;28;97723;-44
2023/07/12 07:38:35;;;;;;;0.73;0.50;;;22.20;99.90;;;22.29;54.69;100806.44;4895031;28;97483;-47
2023/07/12 07:41:09;;;;;;;1.60;0.50;;;22.10;99.90;;;22.22;55.38;100811.44;4892203;28;97680;-44
2023/07/12 07:43:36;;;;;;;0.67;0.53;;;22.10;99.90;;;22.22;55.19;100812.31;4896977;28;98095;-46
2023/07/12 07:46:07;;;;;;;3.70;0.70;;;22.10;99.90;;;22.24;54.91;100813.03;4900548;28;97948;-47
2023/07/12 07:48:32;;;;;;;2.43;0.40;;;22.10;99.90;;;22.30;54.58;100809.00;4891882;28;97295;-42
2023/07/12 07:50:58;;;;;;;1.73;0.53;;;22.20;99.90;;;22.29;53.82;100811.81;4899301;28;97552;-43
2023/07/12 07:53:24;;;;;;;0.43;0.30;;;22.20;99.90;;;22.20;51.84;100813.41;4896102;28;102935;-43
2023/07/12 07:55:52;;;;;;;1.90;0.50;;;22.10;99.90;;;22.32;52.04;100816.94;4896051;28;103711;-43
2023/07/12 07:58:20;;;;;;;1.00;0.60;;;22.20;99.90;;;22.30;53.75;100803.63;4900308;28;97697;-47
2023/07/12 08:00:46;;;;;;;2.87;0.70;;;22.10;99.90;;;22.31;52.58;100815.22;4904053;28;97808;-46
2023/07/12 08:03:12;;;;;;;0.40;0.40;;;22.20;99.90;;;22.40;51.53;100814.44;4900398;28;101861;-43
2023/07/12 08:05:38;;;;;;;1.93;0.73;;;22.30;99.90;;;22.37;53.43;100804.81;4897049;28;111724;-44
2023/07/12 08:08:05;;;;;;;1.63;0.50;;;22.30;99.90;;;22.42;51.07;100815.19;4904369;28;99566;-43
2023/07/12 08:10:32;;;;;;;0.60;0.50;;;22.30;99.90;;;22.45;51.40;100801.50;4901032;28;97010;-45
2023/07/12 08:12:58;;;;;;;1.10;0.40;;;22.30;99.90;;;22.51;51.02;100801.84;4907189;28;98675;-43
2023/07/12 08:15:25;;;;;;;0.50;0.47;;;22.40;99.90;;;22.59;50.94;100803.06;4895133;28;97216;-45
2023/07/12 08:17:51;;;;;;;1.07;0.80;;;22.50;99.90;;;22.66;50.79;100805.06;4894593;28;97268;-45
2023/07/12 08:20:17;;;;;;;2.37;0.60;;;22.50;99.90;;;22.63;50.75;100808.03;4895783;28;98446;-44
2023/07/12 08:22:44;;;;;;;0.60;0.50;;;22.50;99.90;;;22.65;48.85;100803.38;4898937;28;98014;-45
2023/07/12 08:25:09;;;;;;;0.40;0.40;;;22.50;99.90;;;22.57;49.07;100811.25;4897419;28;121489;-45
2023/07/12 08:27:35;;;;;;;1.10;0.57;;;22.50;99.90;;;22.61;49.70;100812.69;4893537;28;97137;-44
2023/07/12 08:30:02;;;;;;;0.77;0.40;;;22.50;99.90;;;22.61;50.88;100811.84;4897677;28;96964;-46
2023/07/12 08:32:32;;;;;;;1.27;0.70;;;22.50;99.90;;;22.61;50.76;100814.53;4905331;28;99104;-43
2023/07/12 08:34:58;;;;;;;1.10;0.50;;;22.50;99.90;;;22.53;52.05;100816.00;4895004;28;101572;-46
2023/07/12 08:37:25;;;;;;;1.03;0.40;;;22.40;99.90;;;22.55;50.50;100821.25;4894634;28;97541;-42
2023/07/12 08:39:51;;;;;;;0.73;0.40;;;22.50;99.90;;;22.54;51.07;100817.69;4909978;28;97187;-47
2023/07/12 08:42:26;;;;;;;0.83;0.50;;;22.40;99.90;;;22.51;50.73;100814.44;4895797;28;98917;-48
2023/07/12 08:44:54;;;;;;;0.40;0.40;;;22.40;99.90;;;22.56;51.11;100825.63;4894671;28;97395;-45
2023/07/12 08:47:28;;;;;;;0.53;0.33;;;22.50;99.90;;;22.60;50.43;100831.63;4896127;28;97655;-46
2023/07/12 08:49:54;;;;;;;0.73;0.40;;;22.50;99.90;;;22.60;52.05;100820.88;4899275;28;97503;-46
2023/07/12 08:52:29;;;;;;;1.60;0.73;;;22.50;99.90;;;22.62;51.04;100830.53;4896409;28;120028;-45
2023/07/12 08:54:57;;;;;;;1.73;0.67;;;22.50;99.90;;;22.57;52.24;100827.38;4865958;28;99845;-42
2023/07/12 08:57:25;;;;;;;1.43;0.50;;;22.50;99.90;;;22.60;51.52;100834.31;4866202;28;98182;-45
2023/07/12 09:00:10;;;;;;;4.70;0.60;;;22.50;99.90;;;22.55;51.50;100824.78;4857125;28;97807;-45
2023/07/12 09:02:37;;;;;;;1.57;0.50;;;22.50;99.90;;;22.62;52.02;100818.91;4855935;28;102976;-45
2023/07/12 09:05:29;;;;;;;1.13;0.47;;;22.50;99.90;;;22.62;49.71;100825.16;4861241;28;101110;-44
2023/07/12 09:08:10;;;;;;;1.70;0.60;;;22.50;99.90;;;22.60;48.28;100832.50;4855792;28;98648;-48
2023/07/12 09:10:54;;;;;;;2.30;0.47;;;22.50;99.90;;;22.60;49.32;100823.56;4854845;28;97372;-44
2023/07/12 09:13:21;;;;;;;2.30;0.70;;;22.50;99.90;;;22.59;48.29;100833.47;4855546;28;98737;-45
2023/07/12 09:15:50;;;;;;;2.33;0.50;;;22.50;99.90;;;22.62;49.52;100835.91;4861583;28;98858;-44
2023/07/12 09:18:36;;;;;;;0.93;0.70;;;22.50;99.90;;;22.73;47.76;100832.31;4861508;28;98997;-45
2023/07/12 09:21:19;;;;;;;1.57;0.50;;;22.60;99.90;;;22.79;47.40;100826.41;4853231;28;97847;-44
2023/07/12 09:23:45;;;;;;;1.37;0.43;;;22.70;99.90;;;22.76;51.30;100827.53;4876919;28;102095;-48
2023/07/12 09:26:30;;;;;;;1.30;0.43;;;22.70;99.90;;;22.81;49.57;100828.00;4861087;28;103139;-42
2023/07/12 09:29:07;;;;;;;1.00;0.63;;;22.70;99.90;;;22.83;47.07;100834.13;4863604;28;97733;-46
2023/07/12 09:31:36;;;;;;;2.00;0.50;;;22.80;99.90;;;22.80;47.11;100839.72;4857145;28;97959;-44
2023/07/12 09:34:05;;;;;;;1.40;0.50;;;22.80;99.90;;;22.78;48.80;100841.69;4876715;28;104975;-44
2023/07/12 09:36:36;;;;;;;7.40;0.63;;;22.80;99.90;;;22.79;47.82;100838.03;4859130;28;102589;-48
2023/07/12 09:39:05;;;;;;;1.00;0.40;;;22.70;99.90;;;22.86;47.14;100838.41;4857326;28;97533;-45
2023/07/12 09:41:31;;;;;;;2.73;0.60;;;22.80;99.90;;;22.91;49.30;100833.47;4863735;28;97576;-44
2023/07/12 09:43:59;;;;;;;0.97;0.60;;;22.80;99.90;;;22.99;49.57;100836.38;4859449;28;104327;-43
2023/07/12 09:47:03;;;;;;;0.77;0.60;;;23.00;99.90;;;22.97;49.46;100841.03;4860715;28;97278;-46
2023/07/12 09:49:52;;;;;;;2.07;0.60;;;23.00;99.90;;;23.00;47.40;100845.28;4758929;29;98698;-43
2023/07/12 09:52:27;;;;;;;1.47;0.40;;;23.00;99.90;;;22.97;46.93;100845.56;4850037;28;97845;-44
2023/07/12 09:55:03;;;;;;;0.70;0.60;;;22.90;99.90;;;22.98;47.75;100848.09;4861998;28;98941;-45
2023/07/12 09:57:53;;;;;;;2.33;0.40;;;22.90;99.90;;;23.01;49.07;100841.63;4860591;28;101196;-44
2023/07/12 10:00:41;;;;;;;2.73;0.80;;;22.90;99.90;;;23.00;47.26;100846.16;4855341;28;97711;-44
2023/07/12 10:03:38;;;;;;;0.73;0.43;;;23.00;99.90;;;23.08;48.34;100848.19;4861643;28;99665;-46
2023/07/12 10:06:48;;;;;;;0.83;0.20;;;23.00;99.90;;;23.01;47.46;100857.78;4860593;28;101747;-44
2023/07/12 10:09:33;;;;;;;0.33;0.30;;;23.00;99.90;;;23.02;48.45;100848.72;4842987;28;103491;-47
2023/07/12 10:12:12;;;;;;;1.30;0.53;;;23.00;99.90;;;23.12;46.45;100857.69;4860993;28;98646;-46
2023/07/12 10:14:41;;;;;;;2.00;0.40;;;23.10;99.90;;;23.09;46.08;100857.97;4852886;28;97614;-43
2023/07/12 10:17:20;;;;;;;1.92;0.50;;;23.10;99.90;;;23.12;44.61;100849.63;4859429;28;98502;-43